createdAt,value
2017-07-15T00:02:41.681Z,99.99
2017-07-15T00:12:41.669Z,99.99
2017-07-15T00:22:41.660Z,99.99
2017-07-15T00:32:41.670Z,99.99
2017-07-15T00:42:41.667Z,99.99
2017-07-15T00:52:41.670Z,99.99
2017-07-15T01:02:41.985Z,99.99
2017-07-15T01:12:41.663Z,99.99
2017-07-15T01:22:41.966Z,99.99
2017-07-15T01:32:41.926Z,99.99
2017-07-15T01:42:41.749Z,99.99
2017-07-15T01:52:41.656Z,99.99
2017-07-15T02:02:42.403Z,99.99
2017-07-15T02:12:41.672Z,99.99
2017-07-15T02:22:41.859Z,99.99
2017-07-15T02:32:42.668Z,99.99
2017-07-15T02:42:41.653Z,99.99
2017-07-15T02:52:41.644Z,99.99
2017-07-15T03:02:41.655Z,99.99
2017-07-15T03:12:41.647Z,99.99
2017-07-15T03:22:41.763Z,99.99
2017-07-15T03:32:41.654Z,99.99
2017-07-15T03:42:41.651Z,99.99
2017-07-15T03:52:41.657Z,99.99
2017-07-15T04:02:41.655Z,99.99
2017-07-15T04:12:41.649Z,99.99
2017-07-15T04:22:41.641Z,99.99
2017-07-15T04:32:41.641Z,99.99
2017-07-15T04:42:41.649Z,99.99
2017-07-15T04:52:41.755Z,99.99
2017-07-15T05:02:41.654Z,99.99
2017-07-15T05:12:41.665Z,99.99
2017-07-15T05:22:42.120Z,99.99
2017-07-15T05:32:42.198Z,99.99
2017-07-15T05:42:41.769Z,99.99
2017-07-15T05:52:41.646Z,99.99
2017-07-15T06:02:41.683Z,99.99
2017-07-15T06:12:41.653Z,99.99
2017-07-15T06:22:41.654Z,99.99
2017-07-15T06:32:41.660Z,99.99
2017-07-15T06:42:41.641Z,99.99
2017-07-15T06:52:41.695Z,99.99
2017-07-15T07:02:41.667Z,99.99
2017-07-15T07:12:41.647Z,99.99
2017-07-15T07:22:41.652Z,99.99
2017-07-15T07:32:41.666Z,99.99
2017-07-15T07:42:41.654Z,99.99
2017-07-15T07:52:41.665Z,99.99
2017-07-15T08:02:41.673Z,83.74
2017-07-15T08:12:41.648Z,63.47
2017-07-15T08:22:41.712Z,69.24
2017-07-15T08:32:41.673Z,83.49
2017-07-15T08:42:41.686Z,86.92
2017-07-15T08:52:41.663Z,87.9
2017-07-15T09:02:41.678Z,89.15
2017-07-15T09:12:41.673Z,74.32
2017-07-15T09:22:41.667Z,76.55
2017-07-15T09:32:41.694Z,78.59
2017-07-15T09:42:41.686Z,80.41
2017-07-15T09:52:41.665Z,79.66
2017-07-15T10:02:41.691Z,75.07
2017-07-15T10:12:41.683Z,68.1
2017-07-15T10:22:41.680Z,71.78
2017-07-15T10:32:41.679Z,73.22
2017-07-15T10:42:41.691Z,73.58
2017-07-15T10:52:41.716Z,72.61
2017-07-15T11:02:41.706Z,72.13
2017-07-15T11:12:41.701Z,72.09
2017-07-15T11:22:41.685Z,73.69
2017-07-15T11:32:41.692Z,72.02
2017-07-15T11:42:41.699Z,67.3
2017-07-15T11:52:41.697Z,66.88
2017-07-15T12:02:41.709Z,66.85
2017-07-15T12:12:41.703Z,66.3
2017-07-15T12:22:41.767Z,66.94
2017-07-15T12:32:41.694Z,63.98
2017-07-15T12:42:41.715Z,66.11
2017-07-15T12:52:41.709Z,68.1
2017-07-15T13:02:41.716Z,68.78
2017-07-15T13:12:41.707Z,63.47
2017-07-15T13:22:41.772Z,60.89
2017-07-15T13:32:41.716Z,57.73
2017-07-15T13:42:41.721Z,59.01
2017-07-15T13:52:41.725Z,60.47
2017-07-15T14:02:41.924Z,61.05
2017-07-15T14:12:41.720Z,60.75
2017-07-15T14:22:41.737Z,60.57
2017-07-15T14:32:41.752Z,63.95
2017-07-15T14:42:41.746Z,61.63
2017-07-15T14:52:41.728Z,61.92
2017-07-15T15:02:41.765Z,62.01
2017-07-15T15:12:42.193Z,63.21
2017-07-15T15:22:41.753Z,62.92
2017-07-15T15:32:43.840Z,62.73
2017-07-15T15:42:42.766Z,60.79
2017-07-15T15:52:41.765Z,60.63
2017-07-15T16:02:41.821Z,58.7
2017-07-15T16:12:41.755Z,59.86
2017-07-15T16:22:44.967Z,55.73
2017-07-15T16:32:42.780Z,55.51
2017-07-15T16:42:41.767Z,55.21
2017-07-15T16:52:43.824Z,56.73
2017-07-15T17:02:41.773Z,56.71
2017-07-15T17:12:41.754Z,59.15
2017-07-15T17:22:41.760Z,58.7
2017-07-15T17:32:41.756Z,60.25
2017-07-15T17:42:41.745Z,62.63
2017-07-15T17:52:41.767Z,65.11
2017-07-15T18:02:41.764Z,67.3
2017-07-15T18:12:41.790Z,69.09
2017-07-15T18:22:41.795Z,71.18
2017-07-15T18:32:41.760Z,73.07
2017-07-15T18:42:41.771Z,73.74
2017-07-15T18:52:41.765Z,75.48
2017-07-15T19:02:41.764Z,76.53
2017-07-15T19:12:41.768Z,77.98
2017-07-15T19:22:42.818Z,78.23
2017-07-15T19:32:41.790Z,80.25
2017-07-15T19:42:41.776Z,82.27
2017-07-15T19:52:41.778Z,86.75
2017-07-15T20:02:42.774Z,89.21
2017-07-15T20:12:41.775Z,90.55
2017-07-15T20:22:41.785Z,93.01
2017-07-15T20:32:41.771Z,99.15
2017-07-15T20:42:41.786Z,99.99
2017-07-15T20:52:41.783Z,99.97
2017-07-15T21:02:41.768Z,99.99
2017-07-15T21:12:41.773Z,99.99
2017-07-15T21:22:41.765Z,99.99
2017-07-15T21:32:41.777Z,99.99
2017-07-15T21:42:41.800Z,99.99
2017-07-15T21:52:41.773Z,99.99
2017-07-15T22:02:41.786Z,99.99
2017-07-15T22:12:41.952Z,99.99
2017-07-15T22:22:41.788Z,99.99
2017-07-15T22:32:41.785Z,99.99
2017-07-15T22:42:41.772Z,99.99
2017-07-15T22:52:41.781Z,99.99
2017-07-15T23:02:41.778Z,99.99
2017-07-15T23:12:41.779Z,99.99
2017-07-15T23:22:41.948Z,99.99
2017-07-15T23:32:41.841Z,99.99
2017-07-15T23:42:41.793Z,99.99
2017-07-15T23:52:41.795Z,99.99
